createdAt,value
2018-04-29T00:01:53.022Z,41.20
2018-04-29T00:04:21.246Z,41.20
2018-04-29T00:06:49.494Z,41.20
2018-04-29T00:09:17.714Z,41.10
2018-04-29T00:11:46.054Z,41.10
2018-04-29T00:14:14.271Z,41.20
2018-04-29T00:16:42.714Z,41.10
2018-04-29T00:19:10.934Z,41.10
2018-04-29T00:21:39.264Z,41.10
2018-04-29T00:24:07.638Z,41.10
2018-04-29T00:26:35.882Z,41.10
2018-04-29T00:29:04.398Z,41.10
2018-04-29T00:31:32.663Z,41.10
2018-04-29T00:34:01.055Z,41.10
2018-04-29T00:36:29.458Z,41.10
2018-04-29T00:38:57.730Z,41.10
2018-04-29T00:41:25.966Z,41.10
2018-04-29T00:43:54.962Z,41.20
2018-04-29T00:46:23.977Z,41.10
2018-04-29T00:48:52.194Z,41.10
2018-04-29T00:54:20.819Z,41.10
2018-04-29T00:56:49.060Z,41.20
2018-04-29T00:59:17.283Z,41.20
2018-04-29T01:01:45.518Z,41.20
2018-04-29T01:04:13.958Z,41.20
2018-04-29T01:06:42.199Z,41.20
2018-04-29T01:09:10.423Z,41.10
2018-04-29T01:11:38.786Z,41.10
2018-04-29T01:14:07.059Z,41.10
2018-04-29T01:16:35.275Z,41.10
2018-04-29T01:19:03.512Z,41.10
2018-04-29T01:21:31.735Z,41.10
2018-04-29T01:23:59.974Z,41.10
2018-04-29T01:26:28.306Z,41.20
2018-04-29T01:28:56.699Z,41.20
2018-04-29T01:31:24.918Z,41.20
2018-04-29T01:33:53.167Z,41.20
2018-04-29T01:36:21.544Z,41.20
2018-04-29T01:38:49.939Z,41.20
2018-04-29T01:41:18.398Z,41.30
2018-04-29T01:43:46.636Z,41.20
2018-04-29T01:46:15.026Z,41.30
2018-04-29T01:48:43.551Z,41.30
2018-04-29T01:51:11.814Z,41.30
2018-04-29T01:53:40.051Z,41.30
2018-04-29T01:56:08.267Z,41.30
2018-04-29T01:58:36.502Z,41.30
2018-04-29T02:01:04.732Z,41.30
2018-04-29T02:03:33.079Z,41.20
2018-04-29T02:06:01.441Z,41.20
2018-04-29T02:08:29.670Z,41.20
2018-04-29T02:10:57.895Z,41.30
2018-04-29T02:13:26.291Z,41.30
2018-04-29T02:15:54.778Z,41.30
2018-04-29T02:18:23.012Z,41.20
2018-04-29T02:20:51.235Z,41.30
2018-04-29T02:23:19.466Z,41.30
2018-04-29T02:25:47.682Z,41.30
2018-04-29T02:28:15.971Z,41.30
2018-04-29T02:30:44.312Z,41.30
2018-04-29T02:33:12.539Z,41.30
2018-04-29T02:35:40.791Z,41.30
2018-04-29T02:38:09.265Z,41.30
2018-04-29T02:40:37.652Z,41.30
2018-04-29T02:43:05.881Z,41.30
2018-04-29T02:45:34.398Z,41.30
2018-04-29T02:48:02.674Z,41.40
2018-04-29T02:50:31.032Z,41.30
2018-04-29T02:52:59.459Z,41.30
2018-04-29T02:55:27.814Z,41.30
2018-04-29T02:57:56.031Z,41.40
2018-04-29T03:00:24.364Z,41.30
2018-04-29T03:02:52.583Z,41.30
2018-04-29T03:05:21.119Z,41.20
2018-04-29T03:07:49.371Z,41.30
2018-04-29T03:10:17.608Z,41.30
2018-04-29T03:12:45.855Z,41.30
2018-04-29T03:15:14.242Z,41.30
2018-04-29T03:17:42.674Z,41.30
2018-04-29T03:20:10.907Z,41.30
2018-04-29T03:22:39.123Z,41.30
2018-04-29T03:25:07.540Z,41.40
2018-04-29T03:27:35.819Z,41.30
2018-04-29T03:30:04.047Z,41.40
2018-04-29T03:32:32.263Z,41.40
2018-04-29T03:35:00.630Z,41.40
2018-04-29T03:37:28.850Z,41.40
2018-04-29T03:39:57.104Z,41.90
2018-04-29T03:42:25.327Z,41.40
2018-04-29T03:44:53.557Z,41.30
2018-04-29T03:47:21.889Z,41.40
2018-04-29T03:49:50.114Z,41.30
2018-04-29T03:52:18.460Z,41.30
2018-04-29T03:54:46.674Z,41.30
2018-04-29T03:57:26.614Z,41.40
2018-04-29T04:00:06.586Z,41.30
2018-04-29T04:02:46.706Z,41.30
2018-04-29T04:05:15.072Z,41.30
2018-04-29T04:07:43.308Z,41.40
2018-04-29T04:10:11.832Z,41.40
2018-04-29T04:12:40.075Z,41.30
2018-04-29T04:15:08.459Z,41.40
2018-04-29T04:17:36.846Z,41.40
2018-04-29T04:20:05.343Z,41.40
2018-04-29T04:22:33.611Z,41.40
2018-04-29T04:25:01.967Z,41.40
2018-04-29T04:27:30.399Z,41.40
2018-04-29T04:29:58.618Z,41.40
2018-04-29T04:32:26.854Z,41.40
2018-04-29T04:34:55.211Z,41.40
2018-04-29T04:37:23.452Z,41.40
2018-04-29T04:39:51.663Z,41.40
2018-04-29T04:42:19.878Z,41.40
2018-04-29T04:44:48.216Z,41.40
2018-04-29T04:47:16.584Z,41.40
2018-04-29T04:49:44.814Z,41.40
2018-04-29T04:52:13.826Z,41.40
2018-04-29T04:54:42.138Z,41.40
2018-04-29T04:57:10.358Z,41.40
2018-04-29T04:59:38.702Z,41.40
2018-04-29T05:02:07.167Z,41.30
2018-04-29T05:04:35.447Z,41.40
2018-04-29T05:07:03.665Z,41.30
2018-04-29T05:09:31.896Z,41.40
2018-04-29T05:12:00.275Z,41.40
2018-04-29T05:14:28.631Z,41.30
2018-04-29T05:16:57.023Z,41.40
2018-04-29T05:19:25.265Z,41.40
2018-04-29T05:21:53.479Z,41.30
2018-04-29T05:24:21.839Z,41.40
2018-04-29T05:26:50.056Z,41.40
2018-04-29T05:29:18.332Z,41.40
2018-04-29T05:31:46.651Z,41.40
2018-04-29T05:34:15.614Z,41.40
2018-04-29T05:36:43.754Z,41.40
2018-04-29T05:39:12.112Z,41.40
2018-04-29T05:41:40.471Z,41.30
2018-04-29T05:44:08.711Z,41.40
2018-04-29T05:46:37.056Z,41.40
2018-04-29T05:49:05.300Z,41.40
2018-04-29T05:51:33.735Z,41.40
2018-04-29T05:54:02.191Z,41.30
2018-04-29T05:56:30.562Z,41.30
2018-04-29T05:58:59.542Z,41.40
2018-04-29T06:01:28.547Z,41.40
2018-04-29T06:03:57.526Z,41.40
2018-04-29T06:06:26.571Z,41.40
2018-04-29T06:08:55.511Z,41.40
2018-04-29T06:11:24.506Z,41.40
2018-04-29T06:13:53.518Z,41.40
2018-04-29T06:16:21.751Z,41.40
2018-04-29T06:18:50.143Z,41.40
2018-04-29T06:21:18.659Z,41.40
2018-04-29T06:23:46.903Z,41.40
2018-04-29T06:26:15.239Z,41.40
2018-04-29T06:28:43.658Z,41.40
2018-04-29T06:31:12.170Z,41.40
2018-04-29T06:33:40.415Z,41.40
2018-04-29T06:36:08.807Z,41.40
2018-04-29T06:38:37.022Z,41.40
2018-04-29T06:41:05.375Z,41.40
2018-04-29T06:43:33.595Z,42.00
2018-04-29T06:46:02.015Z,41.40
2018-04-29T06:48:30.515Z,41.40
2018-04-29T06:50:58.755Z,41.40
2018-04-29T06:53:27.166Z,41.40
2018-04-29T06:55:55.364Z,41.30
2018-04-29T06:58:23.690Z,41.30
2018-04-29T07:00:52.766Z,41.80
2018-04-29T07:03:21.674Z,41.30
2018-04-29T07:05:49.893Z,41.30
2018-04-29T07:08:18.171Z,41.30
2018-04-29T07:10:46.538Z,41.30
2018-04-29T07:13:14.771Z,41.30
2018-04-29T07:15:43.295Z,41.90
2018-04-29T07:18:11.583Z,41.40
2018-04-29T07:20:40.052Z,41.40
2018-04-29T07:23:08.279Z,41.40
2018-04-29T07:25:36.676Z,41.40
2018-04-29T07:28:04.907Z,41.30
2018-04-29T07:30:33.256Z,41.30
2018-04-29T07:33:01.556Z,41.40
2018-04-29T07:35:29.774Z,41.40
2018-04-29T07:37:58.002Z,41.40
2018-04-29T07:40:26.323Z,41.30
2018-04-29T07:42:54.561Z,41.30
2018-04-29T07:45:22.811Z,41.30
2018-04-29T07:47:51.174Z,41.30
2018-04-29T07:50:19.391Z,41.30
2018-04-29T07:52:47.626Z,41.30
2018-04-29T07:55:16.014Z,41.90
2018-04-29T07:57:44.252Z,41.30
2018-04-29T08:00:12.466Z,41.30
2018-04-29T08:02:40.703Z,41.30
2018-04-29T08:05:09.010Z,41.40
2018-04-29T08:07:37.242Z,41.40
2018-04-29T08:10:05.635Z,41.40
2018-04-29T08:12:33.870Z,41.40
2018-04-29T08:15:02.095Z,41.40
2018-04-29T08:17:30.332Z,41.30
2018-04-29T08:19:58.571Z,41.40
2018-04-29T08:22:27.048Z,41.40
2018-04-29T08:24:55.192Z,41.30
2018-04-29T08:27:23.421Z,41.30
2018-04-29T08:29:51.635Z,41.30
2018-04-29T08:32:19.875Z,41.80
2018-04-29T08:34:48.227Z,41.30
2018-04-29T08:37:16.467Z,41.30
2018-04-29T08:39:44.683Z,41.30
2018-04-29T08:42:13.155Z,41.30
2018-04-29T08:44:41.398Z,41.30
2018-04-29T08:47:09.783Z,41.30
2018-04-29T08:49:38.182Z,41.30
2018-04-29T08:52:06.393Z,41.30
2018-04-29T08:54:34.663Z,41.30
2018-04-29T08:57:02.943Z,41.30
2018-04-29T08:59:31.174Z,41.30
2018-04-29T09:02:00.158Z,41.30
2018-04-29T09:04:29.167Z,41.80
2018-04-29T09:06:58.146Z,41.30
2018-04-29T09:09:27.147Z,41.30
2018-04-29T09:11:56.155Z,41.20
2018-04-29T09:14:24.389Z,41.20
2018-04-29T09:16:52.715Z,41.20
2018-04-29T09:19:20.983Z,41.20
2018-04-29T09:21:49.235Z,41.20
2018-04-29T09:24:17.739Z,41.20
2018-04-29T09:26:45.966Z,41.20
2018-04-29T09:29:14.190Z,41.20
2018-04-29T09:31:42.406Z,41.20
2018-04-29T09:34:10.752Z,41.80
2018-04-29T09:36:38.966Z,41.20
2018-04-29T09:39:07.285Z,41.20
2018-04-29T09:41:35.763Z,41.40
2018-04-29T09:44:04.754Z,41.30
2018-04-29T09:46:33.743Z,41.30
2018-04-29T09:49:02.740Z,41.30
2018-04-29T09:51:31.723Z,41.30
2018-04-29T09:54:00.730Z,41.40
2018-04-29T09:56:29.711Z,41.40
2018-04-29T09:58:58.712Z,41.40
2018-04-29T10:01:27.075Z,41.30
2018-04-29T10:03:55.307Z,41.30
2018-04-29T10:06:23.523Z,41.30
2018-04-29T10:08:51.811Z,41.30
2018-04-29T10:11:20.307Z,41.30
2018-04-29T10:13:48.686Z,41.20
2018-04-29T10:16:16.931Z,41.30
2018-04-29T10:18:45.193Z,41.20
2018-04-29T10:21:13.418Z,41.20
2018-04-29T10:23:41.893Z,41.20
2018-04-29T10:26:10.139Z,41.20
2018-04-29T10:28:38.535Z,41.20
2018-04-29T10:31:06.750Z,41.20
2018-04-29T10:33:34.986Z,41.20
2018-04-29T10:36:03.353Z,41.20
2018-04-29T10:38:31.858Z,41.20
2018-04-29T10:41:00.132Z,41.20
2018-04-29T10:43:28.315Z,41.20
2018-04-29T10:45:56.682Z,41.20
2018-04-29T10:48:24.898Z,41.20
2018-04-29T10:50:53.326Z,41.20
2018-04-29T10:53:21.687Z,41.20
2018-04-29T10:55:49.922Z,41.20
2018-04-29T10:58:18.143Z,41.20
2018-04-29T11:00:46.370Z,41.10
2018-04-29T11:03:14.591Z,41.10
2018-04-29T11:05:42.818Z,41.10
2018-04-29T11:08:11.042Z,41.10
2018-04-29T11:10:39.370Z,41.20
2018-04-29T11:13:07.587Z,41.20
2018-04-29T11:15:35.818Z,41.10
2018-04-29T11:18:04.039Z,41.10
2018-04-29T11:20:32.275Z,41.10
2018-04-29T11:23:00.490Z,41.80
2018-04-29T11:25:28.912Z,41.20
2018-04-29T11:27:57.115Z,41.20
2018-04-29T11:30:25.535Z,41.20
2018-04-29T11:32:53.898Z,41.20
2018-04-29T11:35:22.412Z,41.10
2018-04-29T11:37:50.630Z,41.20
2018-04-29T11:40:18.944Z,41.20
2018-04-29T11:42:47.239Z,41.20
2018-04-29T11:45:15.506Z,41.20
2018-04-29T11:47:43.867Z,41.20
2018-04-29T11:50:12.119Z,41.20
2018-04-29T11:52:40.335Z,41.20
2018-04-29T11:55:08.744Z,41.20
2018-04-29T11:57:36.958Z,41.20
2018-04-29T12:00:05.182Z,41.70
2018-04-29T12:02:33.405Z,41.50
2018-04-29T12:05:01.716Z,41.70
2018-04-29T12:07:30.702Z,41.30
2018-04-29T12:09:59.694Z,41.20
2018-04-29T12:12:28.702Z,41.20
2018-04-29T12:14:57.238Z,41.10
2018-04-29T12:17:26.222Z,41.20
2018-04-29T12:19:54.642Z,41.30
2018-04-29T12:22:23.002Z,41.10
2018-04-29T12:24:51.235Z,41.10
2018-04-29T12:27:19.587Z,41.10
2018-04-29T12:29:47.910Z,41.20
2018-04-29T12:32:16.126Z,41.00
2018-04-29T12:34:44.353Z,41.10
2018-04-29T12:37:12.596Z,41.10
2018-04-29T12:39:40.812Z,41.10
2018-04-29T12:42:09.245Z,41.00
2018-04-29T12:44:37.458Z,41.10
2018-04-29T12:47:05.691Z,40.90
2018-04-29T12:49:33.979Z,41.00
2018-04-29T12:52:02.210Z,41.00
2018-04-29T12:54:30.518Z,41.00
2018-04-29T12:56:58.759Z,41.00
2018-04-29T12:59:27.274Z,41.00
2018-04-29T13:01:55.539Z,41.00
2018-04-29T13:04:23.898Z,40.90
2018-04-29T13:06:52.131Z,40.90
2018-04-29T13:09:20.482Z,40.90
2018-04-29T13:11:48.863Z,40.90
2018-04-29T13:14:17.079Z,40.90
2018-04-29T13:16:45.315Z,40.90
2018-04-29T13:19:13.532Z,40.90
2018-04-29T13:21:42.076Z,40.90
2018-04-29T13:24:10.447Z,40.90
2018-04-29T13:26:38.715Z,40.90
2018-04-29T13:29:06.931Z,40.90
2018-04-29T13:31:35.158Z,41.00
2018-04-29T13:34:03.571Z,41.00
2018-04-29T13:36:31.799Z,40.90
2018-04-29T13:39:00.024Z,41.00
2018-04-29T13:41:28.257Z,40.90
2018-04-29T13:43:56.555Z,40.90
2018-04-29T13:46:24.796Z,40.90
2018-04-29T13:48:53.183Z,40.90
2018-04-29T13:51:21.417Z,40.90
2018-04-29T13:53:49.632Z,40.90
2018-04-29T13:56:17.867Z,40.90
2018-04-29T13:58:46.220Z,41.50
2018-04-29T14:01:15.194Z,40.90
2018-04-29T14:03:44.381Z,40.90
2018-04-29T14:06:12.612Z,40.90
2018-04-29T14:08:40.891Z,41.00
2018-04-29T14:11:09.123Z,40.90
2018-04-29T14:13:37.515Z,40.90
2018-04-29T14:16:05.795Z,40.90
2018-04-29T14:18:34.135Z,41.00
2018-04-29T14:21:03.150Z,41.60
2018-04-29T14:23:32.120Z,41.00
2018-04-29T14:26:01.103Z,41.00
2018-04-29T14:28:29.320Z,41.00
2018-04-29T14:30:57.550Z,41.00
2018-04-29T14:33:25.781Z,41.00
2018-04-29T14:35:54.003Z,41.00
2018-04-29T14:38:22.225Z,41.00
2018-04-29T14:40:52.130Z,41.00
2018-04-29T14:43:20.489Z,41.00
2018-04-29T14:45:48.864Z,41.00
2018-04-29T14:48:17.859Z,41.00
2018-04-29T14:50:46.843Z,41.00
2018-04-29T14:53:15.842Z,41.10
2018-04-29T14:55:44.826Z,41.00
2018-04-29T14:58:13.827Z,40.60
2018-04-29T15:00:42.839Z,41.00
2018-04-29T15:03:11.072Z,41.00
2018-04-29T15:05:40.848Z,41.00
2018-04-29T15:08:09.087Z,41.00
2018-04-29T15:10:37.308Z,41.00
2018-04-29T15:13:05.540Z,41.00
2018-04-29T15:15:33.763Z,41.00
2018-04-29T15:18:02.147Z,41.10
2018-04-29T15:20:30.577Z,41.00
2018-04-29T15:22:58.868Z,41.00
2018-04-29T15:25:27.145Z,41.00
2018-04-29T15:27:55.370Z,41.00
2018-04-29T15:30:23.593Z,41.00
2018-04-29T15:32:51.827Z,41.00
2018-04-29T15:35:20.047Z,41.00
2018-04-29T15:37:48.278Z,41.00
2018-04-29T15:40:16.494Z,41.00
2018-04-29T15:42:44.732Z,41.00
2018-04-29T15:45:12.951Z,41.10
2018-04-29T15:47:41.183Z,41.00
2018-04-29T15:50:09.402Z,41.10
2018-04-29T15:52:37.631Z,41.10
2018-04-29T15:55:05.935Z,41.20
2018-04-29T15:57:34.171Z,41.20
2018-04-29T16:00:02.386Z,41.20
2018-04-29T16:02:30.621Z,41.20
2018-04-29T16:04:58.839Z,41.20
2018-04-29T16:07:27.099Z,41.20
2018-04-29T16:09:55.314Z,41.20
2018-04-29T16:12:23.583Z,41.80
2018-04-29T16:14:51.915Z,41.80
2018-04-29T16:17:20.162Z,41.30
2018-04-29T16:19:48.390Z,41.20
2018-04-29T16:22:16.606Z,41.20
2018-04-29T16:24:44.868Z,41.20
2018-04-29T16:27:13.124Z,41.40
2018-04-29T16:29:41.355Z,41.40
2018-04-29T16:32:09.570Z,41.40
2018-04-29T16:34:37.803Z,41.30
2018-04-29T16:37:06.798Z,41.30
2018-04-29T16:39:35.030Z,41.20
2018-04-29T16:42:03.246Z,41.30
2018-04-29T16:44:31.491Z,41.40
2018-04-29T16:46:59.706Z,41.30
2018-04-29T16:49:27.994Z,41.30
2018-04-29T16:51:56.494Z,41.30
2018-04-29T16:54:24.763Z,41.20
2018-04-29T16:56:52.976Z,41.20
2018-04-29T16:59:21.211Z,41.20
2018-04-29T17:01:49.571Z,41.20
2018-04-29T17:04:17.813Z,41.20
2018-04-29T17:06:46.023Z,41.20
2018-04-29T17:09:14.454Z,41.30
2018-04-29T17:11:42.808Z,41.30
2018-04-29T17:14:11.036Z,41.30
2018-04-29T17:16:39.268Z,41.30
2018-04-29T17:19:07.502Z,41.30
2018-04-29T17:21:35.791Z,41.20
2018-04-29T17:24:04.792Z,41.30
2018-04-29T17:26:33.770Z,41.20
2018-04-29T17:29:02.820Z,41.30
2018-04-29T17:31:31.335Z,41.20
2018-04-29T17:33:59.764Z,41.20
2018-04-29T17:36:28.132Z,41.30
2018-04-29T17:38:56.527Z,41.30
2018-04-29T17:41:24.743Z,41.30
2018-04-29T17:43:52.981Z,41.30
2018-04-29T17:46:21.301Z,41.30
2018-04-29T17:48:49.530Z,41.30
2018-04-29T17:51:17.751Z,41.30
2018-04-29T17:53:45.988Z,41.30
2018-04-29T17:56:14.297Z,41.30
2018-04-29T17:58:42.590Z,41.40
2018-04-29T18:01:10.806Z,41.50
2018-04-29T18:03:39.038Z,41.40
2018-04-29T18:06:07.263Z,41.40
2018-04-29T18:08:40.526Z,41.40
2018-04-29T18:11:08.743Z,41.40
2018-04-29T18:13:37.141Z,41.40
2018-04-29T18:16:05.423Z,41.30
2018-04-29T18:18:33.649Z,41.30
2018-04-29T18:21:02.115Z,41.30
2018-04-29T18:23:30.334Z,41.40
2018-04-29T18:25:58.745Z,41.40
2018-04-29T18:28:27.152Z,41.40
2018-04-29T18:30:55.622Z,41.40
2018-04-29T18:33:23.839Z,41.40
2018-04-29T18:35:52.075Z,41.40
2018-04-29T18:38:20.451Z,41.40
2018-04-29T18:40:48.719Z,41.40
2018-04-29T18:43:16.933Z,41.40
2018-04-29T18:45:45.163Z,41.40
2018-04-29T18:48:13.522Z,41.40
2018-04-29T18:50:41.983Z,41.40
2018-04-29T18:53:09.978Z,41.40
2018-04-29T18:55:38.207Z,41.40
2018-04-29T18:58:06.419Z,41.40
2018-04-29T19:00:34.939Z,41.50
2018-04-29T19:03:03.179Z,41.50
2018-04-29T19:05:43.119Z,41.40
2018-04-29T19:08:11.337Z,41.50
2018-04-29T19:10:39.676Z,41.40
2018-04-29T19:13:07.887Z,41.50
2018-04-29T19:15:36.118Z,41.40
2018-04-29T19:18:04.335Z,41.40
2018-04-29T19:20:32.571Z,41.40
2018-04-29T19:23:00.791Z,41.40
2018-04-29T19:25:29.110Z,41.40
2018-04-29T19:27:57.411Z,41.50
2018-04-29T19:30:25.646Z,41.50
2018-04-29T19:32:53.864Z,41.50
2018-04-29T19:35:22.096Z,41.50
2018-04-29T19:37:50.312Z,41.50
2018-04-29T19:40:18.543Z,41.50
2018-04-29T19:42:46.755Z,41.60
2018-04-29T19:45:15.163Z,41.50
2018-04-29T19:47:43.374Z,41.60
2018-04-29T19:50:11.639Z,41.50
2018-04-29T19:52:40.092Z,41.60
2018-04-29T19:55:08.256Z,41.60
2018-04-29T19:57:37.338Z,41.60
2018-04-29T20:00:05.847Z,41.60
2018-04-29T20:02:34.227Z,41.60
2018-04-29T20:05:02.491Z,41.50
2018-04-29T20:07:30.883Z,41.50
2018-04-29T20:09:59.139Z,41.60
2018-04-29T20:12:27.358Z,41.70
2018-04-29T20:14:55.683Z,42.20
2018-04-29T20:17:23.924Z,41.60
2018-04-29T20:19:52.132Z,41.60
2018-04-29T20:22:20.363Z,41.60
2018-04-29T20:24:48.579Z,41.70
2018-04-29T20:27:17.090Z,41.70
2018-04-29T20:29:45.319Z,41.70
2018-04-29T20:32:15.690Z,41.70
2018-04-29T20:34:43.936Z,41.70
2018-04-29T20:37:12.268Z,41.80
2018-04-29T20:39:40.483Z,41.80
2018-04-29T20:42:08.798Z,41.80
2018-04-29T20:44:37.278Z,41.80
2018-04-29T20:47:05.544Z,41.80
2018-04-29T20:49:33.759Z,41.70
2018-04-29T20:52:01.995Z,41.70
2018-04-29T20:54:30.210Z,41.80
2018-04-29T20:56:58.442Z,41.80
2018-04-29T20:59:26.662Z,41.70
2018-04-29T21:01:54.987Z,41.80
2018-04-29T21:04:23.250Z,41.80
2018-04-29T21:06:51.493Z,41.80
2018-04-29T21:09:19.702Z,41.80
2018-04-29T21:11:48.126Z,41.80
2018-04-29T21:14:16.339Z,41.80
2018-04-29T21:16:44.575Z,41.90
2018-04-29T21:19:12.795Z,41.90
2018-04-29T21:21:41.031Z,41.90
2018-04-29T21:24:09.247Z,41.90
2018-04-29T21:26:37.482Z,41.90
2018-04-29T21:29:05.703Z,41.90
2018-04-29T21:31:34.702Z,42.00
2018-04-29T21:34:02.919Z,42.00
2018-04-29T21:36:31.150Z,42.00
2018-04-29T21:38:59.372Z,42.00
2018-04-29T21:41:27.598Z,42.00
2018-04-29T21:43:55.908Z,42.00
2018-04-29T21:46:24.292Z,42.00
2018-04-29T21:48:52.559Z,41.90
2018-04-29T21:51:20.791Z,42.00
2018-04-29T21:53:49.006Z,42.00
2018-04-29T21:56:17.376Z,42.00
2018-04-29T21:58:45.739Z,42.00
2018-04-29T22:01:13.955Z,42.00
2018-04-29T22:03:42.315Z,42.00
2018-04-29T22:06:10.537Z,42.00
2018-04-29T22:08:38.778Z,42.10
2018-04-29T22:11:06.994Z,42.10
2018-04-29T22:13:35.995Z,42.10
2018-04-29T22:16:04.211Z,42.10
2018-04-29T22:18:32.586Z,42.00
2018-04-29T22:21:00.803Z,42.00
2018-04-29T22:23:29.040Z,42.10
2018-04-29T22:25:57.326Z,42.10
2018-04-29T22:28:25.559Z,42.10
2018-04-29T22:30:53.774Z,42.00
2018-04-29T22:33:22.007Z,42.10
2018-04-29T22:35:50.310Z,42.10
2018-04-29T22:38:18.583Z,42.10
2018-04-29T22:40:46.911Z,42.10
2018-04-29T22:43:15.146Z,42.00
2018-04-29T22:45:43.422Z,42.10
2018-04-29T22:48:11.660Z,42.10
2018-04-29T22:50:39.878Z,42.10
2018-04-29T22:53:08.231Z,42.10
2018-04-29T22:55:36.631Z,42.10
2018-04-29T22:58:04.864Z,42.10
2018-04-29T23:00:33.853Z,42.10
2018-04-29T23:03:02.086Z,42.20
2018-04-29T23:05:30.303Z,42.10
2018-04-29T23:07:58.544Z,42.10
2018-04-29T23:10:26.817Z,42.20
2018-04-29T23:12:54.992Z,42.20
2018-04-29T23:15:23.455Z,42.20
2018-04-29T23:17:51.686Z,42.20
2018-04-29T23:20:19.903Z,42.20
2018-04-29T23:22:48.228Z,42.20
2018-04-29T23:25:16.438Z,42.20
2018-04-29T23:27:44.674Z,42.20
2018-04-29T23:30:13.083Z,42.20
2018-04-29T23:32:42.098Z,42.10
2018-04-29T23:35:10.319Z,42.20
2018-04-29T23:37:38.554Z,42.10
2018-04-29T23:40:06.928Z,42.30
2018-04-29T23:42:35.154Z,42.10
2018-04-29T23:45:04.135Z,42.20
2018-04-29T23:47:32.431Z,42.20
2018-04-29T23:50:00.588Z,42.20
2018-04-29T23:52:28.815Z,42.20
2018-04-29T23:54:57.116Z,42.20
2018-04-29T23:57:25.347Z,42.20
2018-04-29T23:59:53.579Z,42.20
